Time;durP1;ratioP1;P1;durP2;ratioP2;P2;SDS_P1;SDS_P2;PMS_P1;PMS_P2;Temp;Humidity;BMP_temperature;BMP_pressure;BME280_temperature;BME280_humidity;BME280_pressure;Samples;Min_cycle;Max_cycle;Signal;HPM_P1;HPM_P2
2024/02/03 00:00:12;;;;;;;12.18;9.38;;;10.50;99.90;;;;;;5098154;28;20572;-34
2024/02/03 00:02:38;;;;;;;11.20;8.75;;;10.50;99.90;;;;;;5099032;28;20024;-35
2024/02/03 00:05:04;;;;;;;10.23;8.02;;;10.60;99.90;;;;;;5099221;28;20504;-35
2024/02/03 00:07:33;;;;;;;11.98;8.75;;;10.60;99.90;;;;;;5098114;28;20035;-33
2024/02/03 00:09:58;;;;;;;11.02;8.52;;;10.60;99.90;;;;;;5098459;28;20139;-38
2024/02/03 00:12:28;;;;;;;11.65;7.78;;;10.60;99.90;;;;;;5102124;28;20020;-37
2024/02/03 00:14:55;;;;;;;9.43;8.25;;;10.60;99.90;;;;;;5102391;28;20032;-36
2024/02/03 00:17:21;;;;;;;11.60;8.45;;;10.60;99.90;;;;;;5102010;28;20115;-32
2024/02/03 00:19:47;;;;;;;10.23;8.80;;;10.60;99.90;;;;;;5102791;28;20047;-36
2024/02/03 00:22:13;;;;;;;13.40;10.88;;;10.60;99.90;;;;;;5101271;28;20077;-36
2024/02/03 00:24:39;;;;;;;10.30;8.88;;;10.60;99.90;;;;;;5103022;28;20521;-35
2024/02/03 00:27:05;;;;;;;13.48;9.85;;;10.60;99.90;;;;;;5102737;28;20028;-37
2024/02/03 00:29:31;;;;;;;12.40;9.38;;;10.60;99.90;;;;;;5102170;28;20012;-36
2024/02/03 00:31:56;;;;;;;14.30;9.65;;;10.60;99.90;;;;;;5102888;28;20038;-36
2024/02/03 00:34:22;;;;;;;11.10;9.88;;;10.60;99.90;;;;;;5101813;28;20031;-37
2024/02/03 00:36:48;;;;;;;11.82;10.52;;;10.60;99.90;;;;;;5102477;28;20023;-37
2024/02/03 00:39:13;;;;;;;14.40;10.48;;;10.60;99.90;;;;;;5102416;28;20799;-34
2024/02/03 00:41:40;;;;;;;13.82;9.95;;;10.60;99.90;;;;;;5101485;28;20027;-35
2024/02/03 00:44:05;;;;;;;14.80;9.93;;;10.60;99.90;;;;;;5102430;28;20146;-35
2024/02/03 00:46:31;;;;;;;15.05;9.60;;;10.60;99.90;;;;;;5102373;28;20531;-33
2024/02/03 00:48:56;;;;;;;13.75;10.43;;;10.60;99.90;;;;;;5101439;28;20051;-36
2024/02/03 00:51:22;;;;;;;15.05;10.60;;;10.60;99.90;;;;;;5102217;28;20020;-32
2024/02/03 00:53:47;;;;;;;12.38;10.02;;;10.60;99.90;;;;;;5102713;28;20039;-35
2024/02/03 00:56:13;;;;;;;12.23;10.30;;;10.60;99.90;;;;;;5101792;28;20031;-34
2024/02/03 00:58:39;;;;;;;13.63;10.65;;;10.60;99.90;;;;;;5102448;28;20070;-32
2024/02/03 01:01:04;;;;;;;13.15;9.95;;;10.60;99.90;;;;;;5102590;28;20121;-36
2024/02/03 01:03:30;;;;;;;12.45;10.07;;;10.60;99.90;;;;;;5101034;28;20536;-35
2024/02/03 01:05:56;;;;;;;14.88;10.35;;;10.60;99.90;;;;;;5102186;28;20024;-35
2024/02/03 01:08:22;;;;;;;11.30;9.95;;;10.60;99.90;;;;;;5102339;28;20432;-32
2024/02/03 01:10:47;;;;;;;10.20;8.23;;;10.60;99.90;;;;;;5101850;28;20523;-35
2024/02/03 01:13:13;;;;;;;11.82;9.48;;;10.60;99.90;;;;;;5101519;28;20023;-36
2024/02/03 01:15:39;;;;;;;10.40;9.27;;;10.60;99.90;;;;;;5101294;28;20036;-39
2024/02/03 01:18:05;;;;;;;11.30;8.90;;;10.60;99.90;;;;;;5100899;28;20100;-33
2024/02/03 01:20:34;;;;;;;14.55;9.98;;;10.60;99.90;;;;;;5101685;28;20023;-35
2024/02/03 01:23:00;;;;;;;13.57;9.68;;;10.60;99.90;;;;;;5100648;28;20027;-36
2024/02/03 01:25:25;;;;;;;11.07;9.32;;;10.60;99.90;;;;;;5101134;28;20024;-33
2024/02/03 01:27:51;;;;;;;12.32;8.43;;;10.60;99.90;;;;;;5101772;28;20023;-33
2024/02/03 01:30:16;;;;;;;11.43;8.30;;;10.60;99.90;;;;;;5101163;28;20051;-31
2024/02/03 01:32:43;;;;;;;11.45;8.38;;;10.60;99.90;;;;;;5101193;28;20389;-33
2024/02/03 01:35:09;;;;;;;9.70;7.65;;;10.60;99.90;;;;;;5101805;28;20100;-33
2024/02/03 01:37:35;;;;;;;11.80;8.52;;;10.60;99.90;;;;;;5100566;28;20069;-32
2024/02/03 01:40:05;;;;;;;10.32;8.70;;;10.60;99.90;;;;;;5101205;28;20027;-34
2024/02/03 01:42:30;;;;;;;9.38;7.70;;;10.60;99.90;;;;;;5101199;28;20066;-35
2024/02/03 01:44:56;;;;;;;10.98;7.78;;;10.60;99.90;;;;;;5100907;28;20130;-34
2024/02/03 01:47:22;;;;;;;11.57;8.05;;;10.60;99.90;;;;;;5101348;28;20106;-35
2024/02/03 01:49:50;;;;;;;9.93;8.07;;;10.60;99.90;;;;;;5101431;28;20129;-34
2024/02/03 01:52:19;;;;;;;9.50;7.35;;;10.60;99.90;;;;;;5100910;28;20023;-32
2024/02/03 01:54:45;;;;;;;9.88;7.38;;;10.60;99.90;;;;;;5100954;28;20043;-33
2024/02/03 01:57:14;;;;;;;8.77;6.47;;;10.60;99.90;;;;;;5101116;28;20026;-38
2024/02/03 01:59:40;;;;;;;9.32;7.18;;;10.60;99.90;;;;;;5101329;28;20038;-35
2024/02/03 02:02:06;;;;;;;8.77;6.78;;;10.60;99.90;;;;;;5101070;28;20024;-34
2024/02/03 02:04:32;;;;;;;8.55;6.72;;;10.70;99.90;;;;;;5100377;28;20035;-33
2024/02/03 02:06:58;;;;;;;8.82;6.15;;;10.70;99.90;;;;;;5100379;28;20569;-34
2024/02/03 02:09:28;;;;;;;8.60;6.00;;;10.70;99.90;;;;;;5101296;28;20077;-35
2024/02/03 02:11:56;;;;;;;7.45;5.70;;;10.70;99.90;;;;;;5090135;28;20397;-36
2024/02/03 02:14:23;;;;;;;7.43;5.75;;;10.70;99.90;;;;;;5100546;28;20035;-34
2024/02/03 02:16:50;;;;;;;8.23;5.90;;;10.70;99.90;;;;;;5100557;28;20085;-32
2024/02/03 02:19:16;;;;;;;7.88;6.03;;;10.70;99.90;;;;;;5099567;28;20111;-36
2024/02/03 02:21:42;;;;;;;8.90;5.93;;;10.70;99.90;;;;;;5100311;28;20499;-32
2024/02/03 02:24:08;;;;;;;7.82;5.97;;;10.70;99.90;;;;;;5100513;28;20768;-37
2024/02/03 02:26:34;;;;;;;8.23;5.88;;;10.70;99.90;;;;;;5100225;28;20119;-37
2024/02/03 02:28:59;;;;;;;7.18;5.25;;;10.70;99.90;;;;;;5100553;28;20085;-35
2024/02/03 02:31:25;;;;;;;6.75;4.90;;;10.80;99.90;;;;;;5100149;28;20011;-36
2024/02/03 02:33:54;;;;;;;7.20;5.30;;;10.80;99.90;;;;;;5099571;28;20378;-38
2024/02/03 02:36:20;;;;;;;4.70;4.28;;;10.80;99.90;;;;;;5100725;28;20043;-36
2024/02/03 02:38:45;;;;;;;8.48;5.10;;;10.80;99.90;;;;;;5100524;28;20558;-37
2024/02/03 02:41:11;;;;;;;7.55;5.28;;;10.80;99.90;;;;;;5099906;28;20020;-34
2024/02/03 02:43:37;;;;;;;8.88;5.63;;;10.70;99.90;;;;;;5099639;28;20030;-33
2024/02/03 02:46:05;;;;;;;7.57;5.55;;;10.70;99.90;;;;;;5099593;28;20051;-39
2024/02/03 02:48:31;;;;;;;7.07;5.20;;;10.70;99.90;;;;;;5099377;28;20055;-36
2024/02/03 02:50:57;;;;;;;6.80;5.18;;;10.70;99.90;;;;;;5099969;28;20557;-37
2024/02/03 02:53:22;;;;;;;6.22;5.20;;;10.70;99.90;;;;;;5100239;28;20031;-35
2024/02/03 02:55:48;;;;;;;6.85;4.68;;;10.70;99.90;;;;;;5099536;28;20026;-34
2024/02/03 02:58:13;;;;;;;7.70;4.28;;;10.70;99.90;;;;;;5099604;28;20051;-32
2024/02/03 03:00:39;;;;;;;7.28;4.30;;;10.70;99.90;;;;;;5099358;28;20466;-34
2024/02/03 03:03:05;;;;;;;4.35;3.80;;;10.70;99.90;;;;;;5099515;28;20139;-35
2024/02/03 03:05:30;;;;;;;5.50;4.32;;;10.70;99.90;;;;;;5099415;28;20528;-36
2024/02/03 03:07:56;;;;;;;6.45;3.95;;;10.70;99.90;;;;;;5099780;28;20066;-34
2024/02/03 03:10:21;;;;;;;5.28;3.60;;;10.70;99.90;;;;;;5099579;28;20026;-33
2024/02/03 03:12:47;;;;;;;5.25;3.80;;;10.70;99.90;;;;;;5099721;28;20028;-32
2024/02/03 03:15:13;;;;;;;3.95;3.55;;;10.70;99.90;;;;;;5100087;28;20062;-36
2024/02/03 03:17:38;;;;;;;5.25;3.45;;;10.70;99.90;;;;;;5098316;28;20424;-36
2024/02/03 03:20:07;;;;;;;4.10;3.10;;;10.70;99.90;;;;;;5099193;28;20027;-38
2024/02/03 03:22:32;;;;;;;4.03;3.00;;;10.60;99.90;;;;;;5099684;28;20093;-33
2024/02/03 03:24:58;;;;;;;4.95;3.70;;;10.60;99.90;;;;;;5098835;28;20565;-35
2024/02/03 03:27:24;;;;;;;4.93;3.70;;;10.60;99.90;;;;;;5098921;28;20081;-36
2024/02/03 03:29:50;;;;;;;4.95;3.95;;;10.60;99.90;;;;;;5099641;28;20046;-37
2024/02/03 03:32:16;;;;;;;4.68;3.53;;;10.60;99.90;;;;;;5097970;28;20016;-32
2024/02/03 03:34:41;;;;;;;4.43;3.80;;;10.60;99.90;;;;;;5099627;28;20039;-35
2024/02/03 03:37:07;;;;;;;6.25;3.90;;;10.60;99.90;;;;;;5098675;28;20028;-34
2024/02/03 03:39:33;;;;;;;5.35;4.28;;;10.60;99.90;;;;;;5099359;28;20043;-33
2024/02/03 03:42:02;;;;;;;5.85;3.70;;;10.60;99.90;;;;;;5099212;28;20082;-36
2024/02/03 03:44:27;;;;;;;4.32;3.83;;;10.60;99.90;;;;;;5097806;28;20929;-32
2024/02/03 03:46:55;;;;;;;4.55;4.10;;;10.60;99.90;;;;;;5099935;28;20028;-32
2024/02/03 03:49:23;;;;;;;5.47;4.28;;;10.60;99.90;;;;;;5099182;28;20030;-37
2024/02/03 03:51:48;;;;;;;7.10;4.70;;;10.60;99.90;;;;;;5099796;28;20104;-34
2024/02/03 03:54:14;;;;;;;7.63;4.97;;;10.60;99.90;;;;;;5098567;28;20035;-33
2024/02/03 03:56:40;;;;;;;7.13;4.90;;;10.60;99.90;;;;;;5098812;28;20024;-33
2024/02/03 03:59:06;;;;;;;6.20;4.40;;;10.60;99.90;;;;;;5098771;28;20023;-37
2024/02/03 04:01:31;;;;;;;7.78;3.97;;;10.60;99.90;;;;;;5098752;28;20031;-32
2024/02/03 04:03:57;;;;;;;4.85;3.92;;;10.70;99.90;;;;;;5098759;28;20023;-34
2024/02/03 04:06:22;;;;;;;3.95;3.47;;;10.70;99.90;;;;;;5098453;28;20032;-34
2024/02/03 04:08:51;;;;;;;6.28;3.90;;;10.60;99.90;;;;;;5098373;28;20135;-35
2024/02/03 04:11:16;;;;;;;4.15;3.75;;;10.60;99.90;;;;;;5098563;28;20240;-34
2024/02/03 04:13:42;;;;;;;6.18;4.43;;;10.70;99.90;;;;;;5098375;28;20764;-34
2024/02/03 04:16:07;;;;;;;6.75;4.70;;;10.60;99.90;;;;;;5098863;28;20047;-37
2024/02/03 04:18:33;;;;;;;4.97;4.07;;;10.60;99.90;;;;;;5097453;28;20044;-31
2024/02/03 04:20:59;;;;;;;3.70;3.25;;;10.70;99.90;;;;;;5098120;28;20553;-33
2024/02/03 04:23:24;;;;;;;4.32;3.83;;;10.60;99.90;;;;;;5098692;28;20038;-33
2024/02/03 04:25:50;;;;;;;4.45;3.58;;;10.70;99.90;;;;;;5098570;28;20024;-37
2024/02/03 04:28:15;;;;;;;4.20;3.80;;;10.60;99.90;;;;;;5097835;28;20104;-37
2024/02/03 04:30:42;;;;;;;4.78;3.90;;;10.70;99.90;;;;;;5098808;28;20130;-32
2024/02/03 04:33:07;;;;;;;4.72;3.92;;;10.60;99.90;;;;;;5098319;28;20833;-33
2024/02/03 04:35:34;;;;;;;5.72;3.25;;;10.70;99.90;;;;;;5097884;28;20035;-32
2024/02/03 04:38:02;;;;;;;6.10;3.78;;;10.70;99.90;;;;;;5098275;28;20055;-35
2024/02/03 04:40:31;;;;;;;5.70;3.45;;;10.70;99.90;;;;;;5097548;28;20421;-31
2024/02/03 04:42:56;;;;;;;4.32;3.20;;;10.70;99.90;;;;;;5098455;28;20707;-33
2024/02/03 04:45:22;;;;;;;3.80;2.85;;;10.70;99.90;;;;;;5098129;28;20027;-35
2024/02/03 04:47:48;;;;;;;5.75;2.80;;;10.70;99.90;;;;;;5098315;28;20019;-35
2024/02/03 04:50:14;;;;;;;4.03;2.80;;;10.70;99.90;;;;;;5098565;28;20079;-37
2024/02/03 04:52:40;;;;;;;3.58;2.65;;;10.70;99.90;;;;;;5098618;28;20024;-36
2024/02/03 04:55:06;;;;;;;3.30;3.00;;;10.70;99.90;;;;;;5097432;28;20066;-32
2024/02/03 04:57:31;;;;;;;7.18;3.13;;;10.70;99.90;;;;;;5100772;28;20028;-36
2024/02/03 04:59:57;;;;;;;4.07;2.83;;;10.70;99.90;;;;;;5102067;28;20553;-35
2024/02/03 05:02:25;;;;;;;4.47;2.85;;;10.70;99.90;;;;;;5100827;28;20066;-34
2024/02/03 05:04:54;;;;;;;2.83;2.38;;;10.70;99.90;;;;;;5101931;28;20027;-37
2024/02/03 05:07:19;;;;;;;4.43;3.03;;;10.80;99.90;;;;;;5097945;28;20382;-37
2024/02/03 05:09:45;;;;;;;3.90;2.50;;;10.70;99.90;;;;;;5100992;28;20063;-36
2024/02/03 05:12:10;;;;;;;3.20;2.45;;;10.70;99.90;;;;;;5101640;28;20055;-35
2024/02/03 05:14:45;;;;;;;3.45;2.40;;;10.70;99.90;;;;;;5101934;28;20053;-36
2024/02/03 05:17:11;;;;;;;3.53;2.70;;;10.70;99.90;;;;;;5100839;28;20137;-34
2024/02/03 05:19:36;;;;;;;4.85;2.70;;;10.70;99.90;;;;;;5101779;28;20055;-35
2024/02/03 05:22:02;;;;;;;5.47;2.80;;;10.70;99.90;;;;;;5100912;28;20053;-33
2024/02/03 05:24:27;;;;;;;4.82;3.10;;;10.70;99.90;;;;;;5100743;28;20035;-33
2024/02/03 05:26:53;;;;;;;5.20;2.83;;;10.70;99.90;;;;;;5101864;28;20020;-35
2024/02/03 05:29:19;;;;;;;3.97;2.67;;;10.70;99.90;;;;;;5102056;28;20023;-38
2024/02/03 05:31:47;;;;;;;4.47;3.05;;;10.70;99.90;;;;;;5101376;28;20068;-36
2024/02/03 05:34:13;;;;;;;4.45;2.92;;;10.70;99.90;;;;;;5101516;28;20042;-34
2024/02/03 05:36:39;;;;;;;4.53;2.60;;;10.70;99.90;;;;;;5101228;28;20016;-36
2024/02/03 05:39:04;;;;;;;5.53;3.00;;;10.70;99.90;;;;;;5101430;28;20027;-35
2024/02/03 05:41:30;;;;;;;5.50;2.42;;;10.70;99.90;;;;;;5101807;28;20425;-36
2024/02/03 05:43:55;;;;;;;3.05;2.33;;;10.80;99.90;;;;;;5100270;28;20833;-36
2024/02/03 05:46:21;;;;;;;4.70;3.10;;;10.80;99.90;;;;;;5100841;28;20047;-36
2024/02/03 05:48:46;;;;;;;7.70;2.70;;;10.80;99.90;;;;;;5101764;28;20363;-35
2024/02/03 05:51:12;;;;;;;4.03;2.70;;;10.80;99.90;;;;;;5100494;28;20370;-36
2024/02/03 05:53:38;;;;;;;3.13;2.38;;;10.80;99.90;;;;;;5100282;28;20806;-36
2024/02/03 05:56:04;;;;;;;5.15;2.40;;;10.80;99.90;;;;;;5101243;28;20030;-34
2024/02/03 05:58:29;;;;;;;4.15;2.70;;;10.80;99.90;;;;;;5100234;28;20823;-33
2024/02/03 06:00:56;;;;;;;3.53;2.50;;;10.80;99.90;;;;;;5101252;28;20026;-37
2024/02/03 06:03:23;;;;;;;2.92;2.30;;;10.80;99.90;;;;;;5100469;28;20479;-35
2024/02/03 06:05:49;;;;;;;3.33;2.47;;;10.80;99.90;;;;;;5100135;28;20070;-37
2024/02/03 06:08:14;;;;;;;3.33;2.20;;;10.80;99.90;;;;;;5100226;28;20023;-35
2024/02/03 06:10:40;;;;;;;5.63;2.20;;;10.80;99.90;;;;;;5101192;28;20055;-35
2024/02/03 06:13:06;;;;;;;2.85;1.98;;;10.80;99.90;;;;;;5099793;28;20024;-35
2024/02/03 06:15:32;;;;;;;2.70;2.40;;;10.80;99.90;;;;;;5100214;28;20596;-32
2024/02/03 06:17:58;;;;;;;3.42;1.90;;;10.80;99.90;;;;;;5099748;28;20044;-33
2024/02/03 06:20:23;;;;;;;3.97;2.17;;;10.80;99.90;;;;;;5099793;28;20093;-33
2024/02/03 06:22:49;;;;;;;3.08;2.00;;;10.80;99.90;;;;;;5100623;28;20073;-36
2024/02/03 06:25:15;;;;;;;4.70;2.53;;;10.80;99.90;;;;;;5100023;28;20629;-34
2024/02/03 06:27:41;;;;;;;3.33;2.05;;;10.90;99.90;;;;;;5099879;28;20736;-34
2024/02/03 06:30:10;;;;;;;5.00;2.10;;;10.80;99.90;;;;;;5100933;28;20019;-32
2024/02/03 06:32:35;;;;;;;6.07;2.50;;;10.80;99.90;;;;;;5100216;28;20546;-37
2024/02/03 06:35:01;;;;;;;8.07;3.10;;;10.80;99.90;;;;;;5099361;28;20068;-33
2024/02/03 06:37:26;;;;;;;4.85;2.17;;;10.80;99.90;;;;;;5100614;28;20056;-36
2024/02/03 06:39:52;;;;;;;3.80;2.13;;;10.90;99.90;;;;;;5099963;28;20530;-34
2024/02/03 06:42:17;;;;;;;4.43;2.35;;;10.90;99.90;;;;;;5098807;28;20560;-37
2024/02/03 06:44:43;;;;;;;5.00;2.40;;;10.90;99.90;;;;;;5099918;28;20027;-36
2024/02/03 06:47:08;;;;;;;3.97;2.40;;;10.90;99.90;;;;;;5099078;28;20034;-38
2024/02/03 06:49:34;;;;;;;5.03;2.47;;;10.90;99.90;;;;;;5100036;28;20039;-37
2024/02/03 06:52:00;;;;;;;5.50;2.78;;;10.90;99.90;;;;;;5100545;28;20023;-35
2024/02/03 06:54:25;;;;;;;4.40;2.67;;;10.90;99.90;;;;;;5098832;28;20036;-37
2024/02/03 06:56:51;;;;;;;5.47;2.70;;;10.90;99.90;;;;;;5099851;28;20115;-33
2024/02/03 06:59:16;;;;;;;4.85;2.40;;;10.90;99.90;;;;;;5099038;28;20057;-35
2024/02/03 07:01:42;;;;;;;5.72;2.40;;;10.90;99.90;;;;;;5099914;28;20019;-35
2024/02/03 07:04:07;;;;;;;5.03;2.70;;;10.90;99.90;;;;;;5099279;28;20023;-37
2024/02/03 07:06:36;;;;;;;5.22;2.45;;;10.90;99.90;;;;;;5099802;28;20768;-33
2024/02/03 07:09:01;;;;;;;4.90;2.40;;;10.90;99.90;;;;;;5098345;28;20031;-35
2024/02/03 07:11:27;;;;;;;6.30;2.60;;;10.90;99.90;;;;;;5098968;28;20016;-36
2024/02/03 07:13:53;;;;;;;4.93;2.50;;;10.90;99.90;;;;;;5099576;28;20035;-32
2024/02/03 07:16:18;;;;;;;7.97;3.17;;;10.90;99.90;;;;;;5098531;28;20032;-37
2024/02/03 07:18:44;;;;;;;6.95;3.33;;;10.90;99.90;;;;;;5099685;28;20043;-36
2024/02/03 07:21:09;;;;;;;6.45;3.28;;;11.00;99.90;;;;;;5099600;28;20378;-37
2024/02/03 07:23:35;;;;;;;5.57;2.70;;;10.90;99.90;;;;;;5078972;28;20820;-34
2024/02/03 07:26:00;;;;;;;6.82;3.00;;;10.90;99.90;;;;;;5093044;28;20114;-37
2024/02/03 07:28:26;;;;;;;6.13;2.97;;;10.90;99.90;;;;;;5099837;28;20036;-37
2024/02/03 07:30:54;;;;;;;7.90;4.40;;;10.90;99.90;;;;;;5099086;28;20019;-35
2024/02/03 07:33:20;;;;;;;10.45;3.90;;;10.90;99.90;;;;;;5099617;28;20102;-32
2024/02/03 07:35:45;;;;;;;6.05;3.40;;;10.90;99.90;;;;;;5099329;28;20027;-37
2024/02/03 07:38:11;;;;;;;6.43;3.53;;;10.90;99.90;;;;;;5099493;28;20030;-33
2024/02/03 07:40:37;;;;;;;4.85;3.42;;;10.80;99.90;;;;;;5100148;28;20738;-35
2024/02/03 07:43:02;;;;;;;5.65;3.30;;;10.80;99.90;;;;;;5099731;28;20029;-35
2024/02/03 07:45:28;;;;;;;6.53;3.42;;;10.80;99.90;;;;;;5098190;28;20482;-35
2024/02/03 07:47:56;;;;;;;8.10;4.43;;;10.80;99.90;;;;;;5099131;28;20108;-35
2024/02/03 07:50:22;;;;;;;6.45;3.80;;;10.80;99.90;;;;;;5098461;28;20026;-33
2024/02/03 07:52:47;;;;;;;9.82;4.55;;;10.80;99.90;;;;;;5099586;28;20032;-38
2024/02/03 07:55:13;;;;;;;7.70;4.90;;;10.80;99.90;;;;;;5099099;28;20053;-34
2024/02/03 07:57:39;;;;;;;13.43;5.55;;;10.80;99.90;;;;;;5098158;28;20097;-33
2024/02/03 08:00:08;;;;;;;9.85;6.35;;;10.80;99.90;;;;;;5098863;28;20059;-32
2024/02/03 08:02:33;;;;;;;7.43;6.18;;;10.80;99.90;;;;;;5098966;28;20090;-31
2024/02/03 08:04:59;;;;;;;8.40;5.10;;;10.80;99.90;;;;;;5098310;28;20542;-31
2024/02/03 08:07:24;;;;;;;9.07;5.72;;;10.80;99.90;;;;;;5098951;28;20028;-34
2024/02/03 08:09:50;;;;;;;11.00;6.03;;;10.80;99.90;;;;;;5098894;28;20042;-32
2024/02/03 08:12:15;;;;;;;8.98;5.63;;;10.80;99.90;;;;;;5097869;28;20039;-30
2024/02/03 08:14:41;;;;;;;10.45;5.60;;;10.90;99.90;;;;;;5099421;28;20146;-37
2024/02/03 08:17:07;;;;;;;12.70;5.57;;;10.90;99.90;;;;;;5098423;28;20043;-32
2024/02/03 08:19:32;;;;;;;11.88;6.20;;;10.90;99.90;;;;;;5097885;28;20047;-34
2024/02/03 08:21:58;;;;;;;12.40;6.63;;;10.90;99.90;;;;;;5098598;28;20118;-37
2024/02/03 08:24:23;;;;;;;13.77;6.72;;;10.90;99.90;;;;;;5098796;28;20432;-35
2024/02/03 08:26:49;;;;;;;7.70;5.80;;;11.00;99.90;;;;;;5098531;28;20458;-35
2024/02/03 08:29:15;;;;;;;14.30;6.95;;;11.00;99.90;;;;;;5098538;28;20019;-33
2024/02/03 08:31:40;;;;;;;8.25;6.40;;;11.00;99.90;;;;;;5100042;28;20097;-36
2024/02/03 08:34:09;;;;;;;9.60;5.53;;;11.00;99.90;;;;;;5101682;28;20079;-32
2024/02/03 08:36:34;;;;;;;13.65;5.78;;;11.00;99.90;;;;;;5102253;28;20660;-34
2024/02/03 08:39:00;;;;;;;13.27;6.90;;;11.00;99.90;;;;;;5102399;28;20038;-36
2024/02/03 08:41:25;;;;;;;10.98;6.45;;;11.00;99.90;;;;;;5101643;28;20026;-33
2024/02/03 08:43:51;;;;;;;7.97;5.70;;;11.10;99.90;;;;;;5102672;28;20470;-34
2024/02/03 08:46:17;;;;;;;11.05;6.00;;;11.10;99.90;;;;;;5102307;28;20565;-35
2024/02/03 08:48:45;;;;;;;9.45;6.35;;;11.10;99.90;;;;;;5102247;28;20077;-32
2024/02/03 08:51:11;;;;;;;10.50;6.20;;;11.10;99.90;;;;;;5102978;28;20244;-33
2024/02/03 08:53:36;;;;;;;11.73;7.05;;;11.10;99.90;;;;;;5101639;28;20522;-29
2024/02/03 08:56:06;;;;;;;10.48;5.88;;;11.10;99.90;;;;;;5102328;28;20020;-34
2024/02/03 08:58:32;;;;;;;14.18;6.22;;;11.10;99.90;;;;;;5102446;28;20032;-33
2024/02/03 09:00:57;;;;;;;14.18;6.80;;;11.10;99.90;;;;;;5101554;28;20023;-33
2024/02/03 09:03:26;;;;;;;11.35;6.15;;;11.20;99.90;;;;;;5102156;28;20032;-33
2024/02/03 09:05:51;;;;;;;9.57;5.93;;;11.20;99.90;;;;;;5102061;28;20027;-35
2024/02/03 09:08:17;;;;;;;10.35;5.70;;;11.20;99.90;;;;;;5101368;28;20062;-34
2024/02/03 09:10:42;;;;;;;8.80;5.30;;;11.20;99.90;;;;;;5102327;28;20094;-33
2024/02/03 09:13:08;;;;;;;7.68;4.60;;;11.30;99.90;;;;;;5101795;28;20039;-35
2024/02/03 09:15:33;;;;;;;6.50;4.72;;;11.30;99.90;;;;;;5101434;28;20069;-32
2024/02/03 09:17:59;;;;;;;10.07;4.85;;;11.30;99.90;;;;;;5102033;28;20039;-34
2024/02/03 09:20:25;;;;;;;8.68;4.78;;;11.30;99.90;;;;;;5101604;28;20029;-33
2024/02/03 09:22:50;;;;;;;7.75;4.18;;;11.30;99.90;;;;;;5101127;28;20023;-33
2024/02/03 09:25:16;;;;;;;7.40;4.07;;;11.30;99.90;;;;;;5101028;28;20580;-35
2024/02/03 09:27:42;;;;;;;6.22;4.60;;;11.30;99.90;;;;;;5101883;28;20028;-34
2024/02/03 09:30:08;;;;;;;9.18;4.25;;;11.40;99.90;;;;;;5100583;28;20023;-35
2024/02/03 09:32:37;;;;;;;6.70;4.13;;;11.40;99.90;;;;;;5101322;28;20035;-33
2024/02/03 09:35:02;;;;;;;9.32;4.30;;;11.40;99.90;;;;;;5101448;28;20028;-35
2024/02/03 09:37:28;;;;;;;7.00;3.70;;;11.40;99.90;;;;;;5100727;28;20385;-32
2024/02/03 09:39:55;;;;;;;6.78;3.30;;;11.40;99.90;;;;;;5101528;28;20386;-36
2024/02/03 09:42:22;;;;;;;8.68;4.68;;;11.40;99.90;;;;;;5100347;28;20028;-35
2024/02/03 09:44:48;;;;;;;9.00;4.20;;;11.50;99.90;;;;;;5100801;28;20020;-38
2024/02/03 09:47:15;;;;;;;6.53;3.92;;;11.50;99.90;;;;;;5101466;28;20292;-35
2024/02/03 09:49:40;;;;;;;5.82;3.70;;;11.40;99.90;;;;;;5100802;28;20429;-37
2024/02/03 09:52:13;;;;;;;6.25;5.10;;;11.50;99.90;;;;;;5100937;28;20020;-31
2024/02/03 09:54:45;;;;;;;8.13;4.60;;;11.50;99.90;;;;;;5100940;28;20057;-32
2024/02/03 09:57:12;;;;;;;9.18;4.95;;;11.50;99.90;;;;;;5100401;28;20829;-36
2024/02/03 09:59:38;;;;;;;8.55;5.43;;;11.50;99.90;;;;;;5101445;28;20447;-34
2024/02/03 10:02:04;;;;;;;7.95;5.60;;;11.50;99.90;;;;;;5100095;28;20027;-34
2024/02/03 10:04:37;;;;;;;6.95;5.07;;;11.50;99.90;;;;;;5100108;28;20023;-37
2024/02/03 10:07:03;;;;;;;12.15;5.60;;;11.60;99.90;;;;;;5100761;28;20026;-34
2024/02/03 10:09:28;;;;;;;8.98;5.40;;;11.60;99.90;;;;;;5100672;28;20035;-33
2024/02/03 10:11:54;;;;;;;7.25;4.55;;;11.60;99.90;;;;;;5099781;28;20034;-34
2024/02/03 10:14:19;;;;;;;10.48;5.20;;;11.60;99.90;;;;;;5100262;28;20047;-35
2024/02/03 10:16:52;;;;;;;12.68;6.22;;;11.60;99.90;;;;;;5101204;28;20088;-31
2024/02/03 10:19:21;;;;;;;12.00;5.63;;;11.60;99.90;;;;;;5099745;28;20097;-32
2024/02/03 10:21:47;;;;;;;12.48;5.82;;;11.60;99.90;;;;;;5101186;28;20103;-32
2024/02/03 10:24:21;;;;;;;10.48;5.30;;;11.60;99.90;;;;;;5101074;28;20356;-34
2024/02/03 10:27:05;;;;;;;7.82;4.35;;;11.60;99.90;;;;;;5100482;28;20050;-31
2024/02/03 10:29:30;;;;;;;6.55;4.22;;;11.70;99.90;;;;;;5101199;28;20088;-36
2024/02/03 10:31:56;;;;;;;7.78;4.38;;;11.70;99.90;;;;;;5100848;28;20479;-36
2024/02/03 10:34:22;;;;;;;9.07;4.10;;;11.70;99.90;;;;;;5100475;28;20480;-33
2024/02/03 10:36:48;;;;;;;9.45;4.10;;;11.70;99.90;;;;;;5100718;28;20046;-35
2024/02/03 10:39:14;;;;;;;11.57;4.70;;;11.70;99.90;;;;;;5099219;28;20789;-35
2024/02/03 10:41:42;;;;;;;6.30;3.90;;;11.70;99.90;;;;;;5099548;28;20089;-33
2024/02/03 10:44:09;;;;;;;7.80;5.07;;;11.70;99.90;;;;;;5099605;28;20457;-32
2024/02/03 10:46:42;;;;;;;8.55;3.95;;;11.70;99.90;;;;;;5100076;28;20119;-32
2024/02/03 10:49:14;;;;;;;8.05;4.20;;;11.70;99.90;;;;;;5089241;28;20039;-35
2024/02/03 10:51:41;;;;;;;7.95;4.05;;;11.70;99.90;;;;;;5100638;28;20094;-33
2024/02/03 10:54:23;;;;;;;6.28;3.88;;;11.80;99.90;;;;;;5099054;28;20044;-37
2024/02/03 10:56:50;;;;;;;7.30;4.22;;;11.80;99.90;;;;;;5100649;28;20026;-30
2024/02/03 10:59:22;;;;;;;7.82;4.30;;;11.80;99.90;;;;;;5099883;28;20019;-30
2024/02/03 11:01:48;;;;;;;5.32;3.78;;;11.70;99.90;;;;;;5099841;28;20097;-30
2024/02/03 11:04:14;;;;;;;6.45;3.65;;;11.80;99.90;;;;;;5099754;28;20016;-31
2024/02/03 11:06:40;;;;;;;9.13;4.13;;;11.80;99.90;;;;;;5099808;28;20031;-35
2024/02/03 11:09:23;;;;;;;7.25;4.03;;;11.80;99.90;;;;;;5098467;28;20061;-34
2024/02/03 11:11:57;;;;;;;5.55;3.50;;;11.70;99.90;;;;;;5100271;28;20024;-32
2024/02/03 11:14:27;;;;;;;8.00;4.38;;;11.70;99.90;;;;;;5098792;28;20402;-35
2024/02/03 11:16:58;;;;;;;6.43;3.70;;;11.60;99.90;;;;;;5099365;28;20027;-33
2024/02/03 11:19:35;;;;;;;7.72;3.40;;;11.50;99.90;;;;;;5098323;28;20062;-37
2024/02/03 11:22:03;;;;;;;7.05;3.53;;;11.50;99.90;;;;;;5098881;28;20039;-35
2024/02/03 11:24:30;;;;;;;6.22;3.47;;;11.40;99.90;;;;;;5098452;28;20105;-35
2024/02/03 11:27:12;;;;;;;6.30;3.60;;;11.50;99.90;;;;;;5099108;28;20031;-33
2024/02/03 11:29:38;;;;;;;8.23;3.58;;;11.50;99.90;;;;;;5097909;28;20019;-34
2024/02/03 11:32:05;;;;;;;4.00;3.35;;;11.50;99.90;;;;;;5099698;28;20371;-36
2024/02/03 11:34:32;;;;;;;6.05;3.80;;;11.40;99.90;;;;;;5098461;28;20036;-36
2024/02/03 11:36:59;;;;;;;7.32;3.25;;;11.40;99.90;;;;;;5098375;28;20056;-35
2024/02/03 11:39:35;;;;;;;4.72;3.20;;;11.40;99.90;;;;;;5099301;28;20349;-36
2024/02/03 11:42:05;;;;;;;4.68;3.50;;;11.40;99.90;;;;;;5099217;28;20490;-36
2024/02/03 11:44:50;;;;;;;6.15;2.95;;;11.40;99.90;;;;;;5098638;28;20555;-35
2024/02/03 11:47:19;;;;;;;3.70;2.83;;;11.40;99.90;;;;;;5099228;28;20036;-33
2024/02/03 11:49:49;;;;;;;3.50;2.90;;;11.30;99.90;;;;;;5098210;28;20072;-36
2024/02/03 11:52:15;;;;;;;6.80;3.40;;;11.30;99.90;;;;;;5098996;28;20038;-36
2024/02/03 11:54:40;;;;;;;4.03;2.83;;;11.30;99.90;;;;;;5098671;28;20035;-34
2024/02/03 11:57:06;;;;;;;4.28;2.65;;;11.30;99.90;;;;;;5098187;28;20444;-34
2024/02/03 11:59:36;;;;;;;4.93;2.92;;;11.30;99.90;;;;;;5098767;28;20078;-35
2024/02/03 12:02:04;;;;;;;4.40;2.75;;;11.30;99.90;;;;;;5098447;28;20508;-38
2024/02/03 12:04:29;;;;;;;3.83;2.45;;;11.30;99.90;;;;;;5097445;28;20095;-35
2024/02/03 12:06:56;;;;;;;5.05;2.85;;;11.40;99.90;;;;;;5100765;28;20562;-32
2024/02/03 12:09:22;;;;;;;6.35;2.35;;;11.40;99.90;;;;;;5102727;28;20103;-34
2024/02/03 12:11:50;;;;;;;3.55;2.20;;;11.30;99.90;;;;;;5102463;28;20024;-36
2024/02/03 12:14:19;;;;;;;4.72;2.25;;;11.40;99.90;;;;;;5102744;28;20060;-34
2024/02/03 12:16:48;;;;;;;5.28;2.47;;;11.40;99.90;;;;;;5102596;28;20026;-36
2024/02/03 12:19:15;;;;;;;3.28;2.30;;;11.40;99.90;;;;;;5102054;28;20056;-35
2024/02/03 12:21:41;;;;;;;3.35;2.47;;;11.40;99.90;;;;;;5103247;28;20045;-35
2024/02/03 12:24:08;;;;;;;3.58;2.40;;;11.40;99.90;;;;;;5102530;28;20138;-31
2024/02/03 12:26:37;;;;;;;6.88;2.88;;;11.40;99.90;;;;;;5101748;28;20023;-36
2024/02/03 12:29:03;;;;;;;5.30;2.53;;;11.40;99.90;;;;;;5103034;28;20031;-34
2024/02/03 12:31:29;;;;;;;3.25;2.38;;;11.40;99.90;;;;;;5102343;28;20153;-35
2024/02/03 12:33:55;;;;;;;3.75;2.80;;;11.40;99.90;;;;;;5102116;28;20132;-33
2024/02/03 12:36:21;;;;;;;5.90;3.28;;;11.50;99.90;;;;;;5102228;28;20568;-35
2024/02/03 12:38:47;;;;;;;6.45;3.17;;;11.50;99.90;;;;;;5102792;28;20031;-36